El Tigre, Venezuela
Current Conditions -  °F | °C
As of 8:00 PM on Monday 22 Dec 2014 (Local Time) from SVBC Reporting Station
Broken Clouds Broken Clouds  
Wind Chill: 82°   Ceiling: 1000
Heat Index: 92°   Visibility: 6mi
Dew Point: 79°   Wind: 0mph
Humidity: 89%   Direction: NA
Pressure: 29.85"   Gusts: NA
Location:  8.89°N, 64.26°W
Report Text: SVBC 230000Z 00000KT 9999 BKN010 28/26 Q1011
Loading
Personal Weather Stations






























Interactive Weather Map New forecast layout! Learn more

10-Day Weather Forecast

Advertisements
Track Severe Weather on mobile